Time;durP1;ratioP1;P1;durP2;ratioP2;P2;SDS_P1;SDS_P2;PMS_P1;PMS_P2;Temp;Humidity;BMP_temperature;BMP_pressure;BME280_temperature;BME280_humidity;BME280_pressure;Samples;Min_cycle;Max_cycle;Signal;HPM_P1;HPM_P2
2022/11/07 00:02:03;;;;;;;9.00;6.72;;;;;;;;;;6138326;23;20013;-95
2022/11/07 00:04:29;;;;;;;8.80;6.78;;;;;;;;;;6139203;23;20084;-94
2022/11/07 00:06:55;;;;;;;9.63;7.07;;;;;;;;;;6170823;23;20048;-89
2022/11/07 00:09:21;;;;;;;11.75;7.72;;;;;;;;;;6172924;23;20059;-94
2022/11/07 00:11:48;;;;;;;12.02;7.13;;;;;;;;;;6147033;23;20016;-84
2022/11/07 00:14:14;;;;;;;8.10;6.13;;;;;;;;;;6147367;23;20044;-89
2022/11/07 00:16:41;;;;;;;8.88;6.88;;;;;;;;;;6168492;23;20408;-87
2022/11/07 00:19:07;;;;;;;6.05;5.45;;;;;;;;;;6145473;23;20016;-96
2022/11/07 00:21:33;;;;;;;8.93;6.70;;;;;;;;;;6148583;23;20028;-92
2022/11/07 00:23:59;;;;;;;10.45;6.70;;;;;;;;;;6149052;23;20013;-96
2022/11/07 00:26:25;;;;;;;9.40;7.20;;;;;;;;;;6147980;23;20044;-96
2022/11/07 00:28:51;;;;;;;11.75;6.57;;;;;;;;;;6148517;23;20025;-88
2022/11/07 00:31:18;;;;;;;13.82;6.93;;;;;;;;;;6177395;23;20017;-87
2022/11/07 00:33:44;;;;;;;10.02;6.68;;;;;;;;;;6151455;23;20018;-93
2022/11/07 00:36:17;;;;;;;10.90;6.40;;;10.60;99.90;;;;;;6148792;23;20043;-92
2022/11/07 00:38:43;;;;;;;9.98;6.63;;;;;;;;;;6149301;23;20020;-96
2022/11/07 00:41:09;;;;;;;11.25;6.75;;;;;;;;;;6172391;23;20020;-93
2022/11/07 00:43:35;;;;;;;19.45;6.90;;;;;;;;;;6147171;23;20025;-96
2022/11/07 00:46:02;;;;;;;10.90;6.80;;;;;;;;;;6173616;23;20061;-94
2022/11/07 00:48:28;;;;;;;12.65;7.07;;;;;;;;;;6172240;23;20030;-94
2022/11/07 00:50:54;;;;;;;8.82;7.15;;;;;;;;;;6141491;23;20536;-94
2022/11/07 00:53:20;;;;;;;9.30;6.40;;;;;;;;;;6141445;23;20017;-96
2022/11/07 00:55:46;;;;;;;9.98;7.13;;;;;;;;;;6167861;23;20100;-91
2022/11/07 00:58:12;;;;;;;11.55;6.72;;;;;;;;;;6141663;23;20028;-94
2022/11/07 01:00:38;;;;;;;10.20;7.18;;;;;;;;;;6174388;23;20028;-96
2022/11/07 01:05:57;;;;;;;11.82;6.70;;;;;;;;;;6180540;23;20021;-93
2022/11/07 01:08:23;;;;;;;16.40;7.00;;;;;;;;;;6147404;23;20104;-96
2022/11/07 01:10:49;;;;;;;17.23;6.90;;;;;;;;;;6162510;23;20028;-87
2022/11/07 01:13:15;;;;;;;8.10;6.32;;;;;;;;;;6137774;23;20025;-93
2022/11/07 01:15:42;;;;;;;17.55;7.30;;;;;;;;;;6162394;23;20013;-96
2022/11/07 01:18:08;;;;;;;13.30;6.78;;;;;;;;;;6138022;23;20075;-89
2022/11/07 01:20:34;;;;;;;10.80;6.25;;;;;;;;;;6162408;23;20020;-89
2022/11/07 01:23:00;;;;;;;11.98;5.95;;;;;;;;;;6162445;23;20024;-92
2022/11/07 01:25:26;;;;;;;9.27;6.13;;;;;;;;;;6162996;23;20013;-96
2022/11/07 01:27:52;;;;;;;10.45;5.47;;;;;;;;;;6137602;23;20108;-92
2022/11/07 01:30:18;;;;;;;11.23;5.72;;;;;;;;;;6137760;23;20017;-94
2022/11/07 01:32:44;;;;;;;9.57;6.65;;;;;;;;;;6162152;23;20450;-90
2022/11/07 01:35:10;;;;;;;10.10;5.78;;;;;;;;;;6162459;23;20447;-88
2022/11/07 01:37:36;;;;;;;9.43;5.75;;;;;;;;;;6162212;23;20013;-94
2022/11/07 01:40:02;;;;;;;12.15;6.57;;;;;;;;;;6162831;23;20091;-94
2022/11/07 01:42:28;;;;;;;8.52;5.70;;;;;;;;;;6163185;23;20020;-93
2022/11/07 01:44:57;;;;;;;9.60;5.72;;;10.70;99.90;;;;;;6164869;23;20044;-88
2022/11/07 01:47:37;;;;;;;16.17;6.28;;;10.80;99.90;;;;;;6163474;23;20032;-96
2022/11/07 01:50:05;;;;;;;14.55;6.60;;;;;;;;;;6139127;23;20017;-96
2022/11/07 01:52:33;;;;;;;11.88;6.30;;;;;;;;;;6140257;23;20021;-96
2022/11/07 01:55:14;;;;;;;8.27;5.70;;;;;;;;;;6165708;23;20024;-92
2022/11/07 01:57:48;;;;;;;11.07;5.75;;;10.80;99.90;;;;;;6168759;23;20021;-93
2022/11/07 02:00:16;;;;;;;6.88;5.45;;;11.00;99.90;;;;;;6147796;23;20024;-89
2022/11/07 02:02:44;;;;;;;9.18;6.05;;;11.00;99.90;;;;;;6163612;23;20021;-90
2022/11/07 02:05:13;;;;;;;14.13;6.47;;;;;;;;;;6138517;23;20478;-89
2022/11/07 02:07:40;;;;;;;11.85;5.85;;;;;;;;;;6163987;23;20069;-94
2022/11/07 02:10:06;;;;;;;8.98;5.47;;;;;;;;;;6140269;23;20104;-93
2022/11/07 02:12:32;;;;;;;11.18;4.95;;;;;;;;;;6164676;23;20028;-93
2022/11/07 02:14:58;;;;;;;10.60;4.85;;;;;;;;;;6140400;23;20019;-94
2022/11/07 02:17:24;;;;;;;14.50;5.82;;;;;;;;;;6141593;23;20044;-96
2022/11/07 02:19:55;;;;;;;7.30;5.32;;;;;;;;;;6141778;23;20072;-91
2022/11/07 02:22:21;;;;;;;7.00;4.75;;;;;;;;;;6143219;23;20024;-89
2022/11/07 02:24:50;;;;;;;14.65;5.03;;;;;;;;;;6166275;23;20013;-85
2022/11/07 02:27:18;;;;;;;10.23;5.75;;;;;;;;;;6139984;23;20100;-92
2022/11/07 02:29:46;;;;;;;12.40;4.13;;;;;;;;;;6151544;23;20021;-87
2022/11/07 02:32:13;;;;;;;12.18;4.18;;;;;;;;;;6146440;23;20454;-94
2022/11/07 02:34:39;;;;;;;18.23;6.93;;;;;;;;;;6138215;23;20051;-96
2022/11/07 02:37:07;;;;;;;9.73;3.65;;;;;;;;;;6138528;23;20013;-96
2022/11/07 02:39:33;;;;;;;7.18;3.75;;;;;;;;;;6163231;23;20017;-96
2022/11/07 02:42:00;;;;;;;6.55;3.67;;;;;;;;;;6138009;23;20017;-96
2022/11/07 02:44:26;;;;;;;12.38;4.53;;;;;;;;;;6163608;23;20064;-96
2022/11/07 02:46:52;;;;;;;4.60;3.78;;;;;;;;;;6138193;23;20017;-94
2022/11/07 02:49:18;;;;;;;13.70;4.93;;;;;;;;;;6138947;23;20040;-96
2022/11/07 02:51:44;;;;;;;9.57;4.07;;;;;;;;;;6142247;23;20390;-96
2022/11/07 02:54:10;;;;;;;11.60;4.80;;;;;;;;;;6139436;23;20116;-96
2022/11/07 02:56:36;;;;;;;7.32;4.07;;;;;;;;;;6166677;23;20021;-96
2022/11/07 02:59:02;;;;;;;9.15;4.60;;;;;;;;;;6163366;23;20017;-95
2022/11/07 03:01:28;;;;;;;12.50;3.70;;;;;;;;;;6138635;23;20040;-96
2022/11/07 03:03:54;;;;;;;6.72;4.18;;;;;;;;;;6138973;23;20040;-89
2022/11/07 03:06:24;;;;;;;12.07;4.68;;;;;;;;;;6166999;23;20017;-84
2022/11/07 03:08:50;;;;;;;9.65;3.95;;;;;;;;;;6147542;23;20068;-94
2022/11/07 03:11:19;;;;;;;14.20;4.55;;;11.10;99.90;;;;;;6138984;23;20020;-95
2022/11/07 03:13:46;;;;;;;7.90;3.42;;;;;;;;;;6138310;23;20031;-95
2022/11/07 03:16:13;;;;;;;11.30;3.83;;;;;;;;;;6163521;23;20019;-89
2022/11/07 03:18:39;;;;;;;10.50;3.40;;;;;;;;;;6163486;23;20023;-88
2022/11/07 03:21:05;;;;;;;8.13;3.88;;;;;;;;;;6138271;23;20048;-93
2022/11/07 03:23:31;;;;;;;15.35;4.65;;;;;;;;;;6136436;23;20028;-94
2022/11/07 03:25:57;;;;;;;4.72;3.30;;;;;;;;;;6136961;23;20020;-94
2022/11/07 03:28:23;;;;;;;6.93;4.07;;;;;;;;;;6136476;23;20362;-96
2022/11/07 03:30:50;;;;;;;12.65;5.00;;;;;;;;;;6162775;23;20092;-92
2022/11/07 03:33:16;;;;;;;13.57;3.88;;;;;;;;;;6139250;23;20020;-93
2022/11/07 03:35:42;;;;;;;8.80;3.78;;;;;;;;;;6165441;23;20059;-93
2022/11/07 03:38:08;;;;;;;9.63;3.85;;;;;;;;;;6160499;23;20021;-89
2022/11/07 03:40:35;;;;;;;16.83;4.35;;;;;;;;;;6135746;23;20017;-92
2022/11/07 03:43:01;;;;;;;8.63;3.60;;;;;;;;;;6136350;23;20048;-86
2022/11/07 03:45:27;;;;;;;10.48;3.25;;;;;;;;;;6161226;23;20076;-95
2022/11/07 03:47:53;;;;;;;5.57;3.03;;;;;;;;;;6136488;23;20023;-94
2022/11/07 03:50:20;;;;;;;7.28;3.05;;;10.80;99.90;;;;;;6136331;23;20028;-92
2022/11/07 03:52:47;;;;;;;4.88;2.42;;;10.90;99.90;;;;;;6161164;23;20041;-92
2022/11/07 03:55:17;;;;;;;7.18;3.08;;;;;;;;;;6136360;23;20023;-94
2022/11/07 03:57:43;;;;;;;15.32;3.35;;;;;;;;;;6136595;23;20019;-95
2022/11/07 04:00:10;;;;;;;5.85;3.72;;;10.80;99.90;;;;;;6137526;23;20021;-93
2022/11/07 04:02:36;;;;;;;6.53;3.70;;;;;;;;;;6161391;23;20075;-96
2022/11/07 04:05:03;;;;;;;10.63;2.88;;;;;;;;;;6136260;23;20020;-93
2022/11/07 04:07:29;;;;;;;6.38;3.13;;;;;;;;;;6137107;23;20326;-93
2022/11/07 04:09:55;;;;;;;7.43;2.85;;;;;;;;;;6136314;23;20032;-87
2022/11/07 04:17:51;;;;;;;8.82;2.83;;;;;;;;;;6167244;23;20073;-90
2022/11/07 04:20:17;;;;;;;7.47;2.83;;;;;;;;;;6143061;23;20028;-94
2022/11/07 04:22:43;;;;;;;7.43;4.43;;;;;;;;;;6141988;23;20342;-94
2022/11/07 04:25:09;;;;;;;8.63;3.85;;;;;;;;;;6165964;23;20020;-91
2022/11/07 04:27:41;;;;;;;10.43;4.18;;;;;;;;;;6140055;23;20028;-91
2022/11/07 04:30:28;;;;;;;9.10;3.22;;;;;;;;;;6168621;23;20043;-89
2022/11/07 04:32:59;;;;;;;11.30;3.33;;;10.70;99.90;;;;;;6161500;23;20021;-88
2022/11/07 04:35:31;;;;;;;15.02;4.00;;;10.70;99.90;;;;;;6143564;23;20476;-92
2022/11/07 04:37:57;;;;;;;7.28;3.15;;;;;;;;;;6143721;23;20020;-95
2022/11/07 04:40:23;;;;;;;8.82;4.68;;;;;;;;;;6142877;23;20013;-94
2022/11/07 04:42:49;;;;;;;12.32;2.85;;;;;;;;;;6140778;23;20323;-91
2022/11/07 04:45:15;;;;;;;15.88;4.18;;;;;;;;;;6138203;23;20071;-92
2022/11/07 04:47:42;;;;;;;11.05;3.53;;;;;;;;;;6163045;23;20013;-92
2022/11/07 04:50:10;;;;;;;12.38;5.60;;;10.90;99.90;;;;;;6139638;23;20017;-92
2022/11/07 04:52:40;;;;;;;10.77;4.22;;;;;;;;;;6139290;23;20088;-82
2022/11/07 04:55:07;;;;;;;14.88;5.20;;;10.70;99.90;;;;;;6161324;23;20048;-81
2022/11/07 04:57:33;;;;;;;12.93;3.88;;;;;;;;;;6136699;23;20009;-96
2022/11/07 04:59:59;;;;;;;5.28;3.15;;;;;;;;;;6137681;23;20074;-92
2022/11/07 05:02:25;;;;;;;9.88;4.30;;;;;;;;;;6161679;23;20017;-94
2022/11/07 05:04:52;;;;;;;10.52;3.38;;;;;;;;;;6161821;23;20117;-91
2022/11/07 05:07:18;;;;;;;9.15;3.25;;;10.90;99.90;;;;;;6136299;23;20028;-92
2022/11/07 05:09:44;;;;;;;12.38;3.40;;;;;;;;;;6160373;23;20021;-93
2022/11/07 05:12:10;;;;;;;7.80;3.45;;;;;;;;;;6135619;23;20021;-94
2022/11/07 05:14:36;;;;;;;13.23;5.15;;;;;;;;;;6160397;23;20021;-95
2022/11/07 05:17:03;;;;;;;11.98;4.38;;;;;;;;;;6135774;23;20070;-94
2022/11/07 05:19:29;;;;;;;11.82;3.80;;;;;;;;;;6160403;23;20477;-92
2022/11/07 05:24:39;;;;;;;13.48;4.18;;;;;;;;;;6160174;23;20068;-90
2022/11/07 05:27:06;;;;;;;9.43;4.07;;;;;;;;;;6135698;23;20025;-91
2022/11/07 05:29:32;;;;;;;11.02;3.50;;;;;;;;;;6135585;23;20024;-88
2022/11/07 05:31:58;;;;;;;11.20;3.97;;;;;;;;;;6160133;23;20013;-91
2022/11/07 05:34:24;;;;;;;8.50;4.32;;;;;;;;;;6135542;23;20070;-86
2022/11/07 05:36:50;;;;;;;5.28;3.20;;;;;;;;;;6136409;23;20017;-91
2022/11/07 05:39:16;;;;;;;7.97;3.55;;;;;;;;;;6135511;23;20014;-91
2022/11/07 05:41:42;;;;;;;9.93;4.18;;;;;;;;;;6160026;23;20079;-86
2022/11/07 05:44:09;;;;;;;10.18;4.53;;;10.70;99.90;;;;;;6135329;23;20013;-85
2022/11/07 05:46:35;;;;;;;11.80;4.13;;;;;;;;;;6160064;23;20036;-90
2022/11/07 05:49:01;;;;;;;17.17;4.50;;;;;;;;;;6138563;23;20021;-95
2022/11/07 05:51:27;;;;;;;6.75;4.13;;;;;;;;;;6165738;23;20013;-87
2022/11/07 05:53:56;;;;;;;14.27;3.83;;;;;;;;;;6164653;23;20093;-93
2022/11/07 05:56:22;;;;;;;15.13;4.70;;;;;;;;;;6140847;23;20075;-91
2022/11/07 05:58:48;;;;;;;8.15;4.15;;;;;;;;;;6167452;23;20017;-93
2022/11/07 06:01:15;;;;;;;11.95;4.75;;;;;;;;;;6168980;23;20021;-90
2022/11/07 06:03:41;;;;;;;10.25;4.45;;;;;;;;;;6169263;23;20017;-90
2022/11/07 06:06:10;;;;;;;12.65;4.45;;;;;;;;;;6145688;23;20021;-90
2022/11/07 06:08:36;;;;;;;15.38;4.30;;;;;;;;;;6165399;23;20048;-82
2022/11/07 06:11:05;;;;;;;14.25;4.28;;;;;;;;;;6164650;23;20028;-86
2022/11/07 06:13:31;;;;;;;6.57;4.28;;;;;;;;;;6164305;23;20021;-82
2022/11/07 06:15:57;;;;;;;10.43;3.58;;;;;;;;;;6165796;23;20013;-81
2022/11/07 06:18:24;;;;;;;5.00;3.63;;;;;;;;;;6165399;23;20079;-88
2022/11/07 06:20:50;;;;;;;13.38;4.35;;;;;;;;;;6167099;23;20071;-85
2022/11/07 06:23:16;;;;;;;10.10;4.18;;;;;;;;;;6166859;23;20025;-88
2022/11/07 06:25:42;;;;;;;12.60;4.57;;;;;;;;;;6165529;23;20534;-93
2022/11/07 06:28:12;;;;;;;9.73;4.53;;;10.80;99.90;;;;;;6164686;23;20028;-94
2022/11/07 06:30:39;;;;;;;13.55;4.05;;;;;;;;;;6189737;23;20049;-87
2022/11/07 06:33:07;;;;;;;14.90;5.97;;;10.50;99.90;;;;;;6164108;23;20035;-88
2022/11/07 06:35:34;;;;;;;11.23;4.65;;;;;;;;;;6163829;23;20052;-83
2022/11/07 06:38:02;;;;;;;6.70;4.45;;;;;;;;;;6137498;23;20536;-92
2022/11/07 06:40:28;;;;;;;13.13;4.50;;;;;;;;;;6139616;23;20020;-87
2022/11/07 06:42:54;;;;;;;9.63;3.88;;;;;;;;;;6161336;23;20442;-85
2022/11/07 06:45:23;;;;;;;10.05;4.47;;;;;;;;;;6161622;23;20040;-85
2022/11/07 06:47:50;;;;;;;13.02;4.57;;;;;;;;;;6162294;23;20044;-84
2022/11/07 06:50:19;;;;;;;11.77;3.47;;;;;;;;;;6163397;23;20067;-83
2022/11/07 06:52:45;;;;;;;9.45;3.78;;;;;;;;;;6136882;23;20024;-86
2022/11/07 06:55:11;;;;;;;10.32;3.47;;;;;;;;;;6161318;23;20053;-86
2022/11/07 06:57:37;;;;;;;11.10;3.65;;;;;;;;;;6161662;23;20024;-90
2022/11/07 07:00:04;;;;;;;7.28;3.78;;;;;;;;;;6161104;23;20017;-83
2022/11/07 07:02:30;;;;;;;6.18;3.40;;;;;;;;;;6162647;23;20092;-86
2022/11/07 07:04:56;;;;;;;6.13;3.80;;;;;;;;;;6138727;23;20025;-85
2022/11/07 07:07:25;;;;;;;3.80;3.05;;;;;;;;;;6166968;23;20045;-89
2022/11/07 07:09:51;;;;;;;7.55;3.03;;;;;;;;;;6168729;23;20021;-85
2022/11/07 07:12:17;;;;;;;12.68;4.65;;;;;;;;;;6166390;23;20017;-91
2022/11/07 07:14:43;;;;;;;10.90;4.50;;;;;;;;;;6166094;23;20017;-92
2022/11/07 07:17:12;;;;;;;7.18;3.83;;;;;;;;;;6163868;23;20462;-88
2022/11/07 07:19:41;;;;;;;11.73;4.22;;;;;;;;;;6162746;23;20339;-89
2022/11/07 07:22:12;;;;;;;14.77;4.63;;;;;;;;;;6163048;23;20017;-90
2022/11/07 07:24:38;;;;;;;5.90;4.05;;;;;;;;;;6157846;23;20028;-85
2022/11/07 07:27:05;;;;;;;11.18;4.78;;;;;;;;;;6162934;23;20334;-84
2022/11/07 07:29:31;;;;;;;11.77;5.03;;;;;;;;;;6163429;23;20021;-86
2022/11/07 07:31:57;;;;;;;8.52;4.43;;;;;;;;;;6162322;23;20035;-83
2022/11/07 07:34:23;;;;;;;8.57;5.13;;;;;;;;;;6137338;23;20383;-83
2022/11/07 07:36:49;;;;;;;13.75;5.68;;;;;;;;;;6161750;23;20513;-83
2022/11/07 07:39:17;;;;;;;10.27;5.13;;;;;;;;;;6137464;23;20017;-83
2022/11/07 07:41:43;;;;;;;14.15;6.90;;;;;;;;;;6161671;23;20016;-83
2022/11/07 07:44:09;;;;;;;16.48;6.05;;;;;;;;;;6161389;23;20342;-85
2022/11/07 07:46:35;;;;;;;14.40;6.22;;;;;;;;;;6161937;23;20458;-86
2022/11/07 07:49:01;;;;;;;14.93;5.97;;;;;;;;;;6162127;23;20063;-89
2022/11/07 07:51:27;;;;;;;12.57;5.65;;;;;;;;;;6162221;23;20019;-84
2022/11/07 07:53:54;;;;;;;17.63;6.05;;;;;;;;;;6162199;23;20021;-83
2022/11/07 07:56:20;;;;;;;13.85;6.75;;;;;;;;;;6161458;23;20067;-84
2022/11/07 07:58:46;;;;;;;13.40;6.45;;;;;;;;;;6136689;23;20076;-85
2022/11/07 08:01:12;;;;;;;16.30;5.95;;;;;;;;;;6160776;23;20092;-83
2022/11/07 08:03:38;;;;;;;16.88;7.13;;;;;;;;;;6136880;23;20017;-83
2022/11/07 08:06:04;;;;;;;14.05;7.05;;;;;;;;;;6161441;23;20013;-84
2022/11/07 08:08:31;;;;;;;13.50;6.32;;;;;;;;;;6160939;23;20049;-83
2022/11/07 08:11:02;;;;;;;16.50;6.45;;;;;;;;;;6163353;23;20052;-96
2022/11/07 08:13:29;;;;;;;15.18;6.10;;;;;;;;;;6162903;23;20155;-90
2022/11/07 08:15:55;;;;;;;21.10;6.60;;;;;;;;;;6163914;23;20019;-89
2022/11/07 08:18:22;;;;;;;12.27;6.95;;;;;;;;;;6163000;23;20028;-87
2022/11/07 08:20:53;;;;;;;15.13;6.60;;;;;;;;;;6138600;23;20446;-90
2022/11/07 08:23:19;;;;;;;11.18;7.10;;;;;;;;;;6138955;23;20021;-91
2022/11/07 08:25:49;;;;;;;20.75;6.82;;;;;;;;;;6162891;23;20017;-89
2022/11/07 08:28:15;;;;;;;20.58;6.95;;;;;;;;;;6162338;23;20028;-85
2022/11/07 08:30:42;;;;;;;14.95;6.68;;;;;;;;;;6163095;23;20044;-90
2022/11/07 08:33:08;;;;;;;16.60;7.25;;;;;;;;;;6163122;23;20016;-90
2022/11/07 08:35:34;;;;;;;18.10;6.60;;;;;;;;;;6162913;23;20012;-95
2022/11/07 08:38:00;;;;;;;17.90;6.65;;;;;;;;;;6138523;23;20017;-86
2022/11/07 08:40:26;;;;;;;13.23;6.38;;;;;;;;;;6163108;23;20450;-88
2022/11/07 08:42:52;;;;;;;16.50;6.28;;;;;;;;;;6163469;23;20017;-90
2022/11/07 08:45:18;;;;;;;12.02;6.30;;;;;;;;;;6163290;23;20061;-86
2022/11/07 08:47:44;;;;;;;15.77;6.35;;;;;;;;;;6163108;23;20030;-91
2022/11/07 08:50:11;;;;;;;20.02;6.55;;;;;;;;;;6162394;23;20016;-87
2022/11/07 08:52:37;;;;;;;11.43;6.55;;;;;;;;;;6137921;23;20350;-88
2022/11/07 08:55:04;;;;;;;14.98;6.75;;;;;;;;;;6161731;23;20017;-88
2022/11/07 08:57:30;;;;;;;11.95;6.35;;;;;;;;;;6138175;23;20013;-86
2022/11/07 08:59:59;;;;;;;17.52;6.68;;;;;;;;;;6138361;23;20013;-94
2022/11/07 09:02:26;;;;;;;9.93;5.13;;;;;;;;;;6137592;23;20381;-91
2022/11/07 09:04:52;;;;;;;9.02;5.43;;;;;;;;;;6137724;23;20013;-86
2022/11/07 09:07:18;;;;;;;16.45;6.45;;;;;;;;;;6137484;23;20115;-89
2022/11/07 09:09:44;;;;;;;12.15;5.45;;;;;;;;;;6162533;23;20025;-93
2022/11/07 09:12:10;;;;;;;11.77;5.82;;;;;;;;;;6161584;23;20100;-91
2022/11/07 09:14:36;;;;;;;12.23;5.20;;;;;;;;;;6161034;23;20025;-87
2022/11/07 09:17:02;;;;;;;17.73;5.97;;;;;;;;;;6161250;23;20017;-88
2022/11/07 09:19:28;;;;;;;25.63;6.22;;;;;;;;;;6137768;23;20079;-93
2022/11/07 09:21:55;;;;;;;13.10;4.70;;;;;;;;;;6136402;23;20014;-91
2022/11/07 09:24:21;;;;;;;16.83;5.63;;;;;;;;;;6188358;23;20020;-94
2022/11/07 09:26:47;;;;;;;13.75;4.90;;;;;;;;;;6162058;23;20055;-93
2022/11/07 09:29:14;;;;;;;15.60;5.55;;;;;;;;;;6161186;23;20024;-95
2022/11/07 09:31:40;;;;;;;16.73;5.22;;;;;;;;;;6163474;23;20017;-94
2022/11/07 09:34:06;;;;;;;10.93;5.20;;;;;;;;;;6138591;23;20071;-92
2022/11/07 09:36:33;;;;;;;21.17;6.63;;;;;;;;;;6164343;23;20020;-91
2022/11/07 09:38:59;;;;;;;11.98;3.83;;;;;;;;;;6141435;23;20016;-90
2022/11/07 09:41:43;;;;;;;14.65;5.15;;;;;;;;;;6139290;23;20107;-92
2022/11/07 09:44:15;;;;;;;13.77;6.03;;;;;;;;;;6140156;23;20052;-94
2022/11/07 09:46:52;;;;;;;18.85;6.03;;;;;;;;;;6164574;23;20017;-93
2022/11/07 09:49:23;;;;;;;9.60;4.30;;;;;;;;;;6140201;23;20350;-85
2022/11/07 09:51:53;;;;;;;11.27;4.85;;;;;;;;;;6140301;23;20044;-85
2022/11/07 09:54:22;;;;;;;11.85;5.03;;;;;;;;;;6164561;23;20096;-92
2022/11/07 09:56:48;;;;;;;18.23;5.82;;;;;;;;;;6143727;23;20028;-95
2022/11/07 09:59:53;;;;;;;16.98;5.07;;;11.70;99.90;;;;;;6166460;23;20076;-93
2022/11/07 10:02:25;;;;;;;14.32;4.90;;;;;;;;;;6071933;23;20026;-92
2022/11/07 10:04:58;;;;;;;8.20;4.50;;;11.80;99.90;;;;;;6023804;23;20102;-95
2022/11/07 10:07:36;;;;;;;8.60;4.95;;;;;;;;;;6024114;23;20015;-94
2022/11/07 10:10:20;;;;;;;10.55;5.68;;;;;;;;;;6047733;23;20440;-93
2022/11/07 10:12:46;;;;;;;9.68;4.60;;;;;;;;;;6048063;23;20042;-90
2022/11/07 10:15:16;;;;;;;17.27;6.13;;;11.80;99.90;;;;;;6024952;23;20023;-90
2022/11/07 10:17:48;;;;;;;20.42;5.45;;;;;;;;;;6046678;23;20015;-84
2022/11/07 10:20:30;;;;;;;13.98;5.20;;;11.90;99.90;;;;;;6046770;23;20019;-87
2022/11/07 10:23:19;;;;;;;13.27;5.07;;;;;;;;;;6022441;23;20143;-83
2022/11/07 10:25:52;;;;;;;9.40;4.65;;;;;;;;;;6021267;23;20071;-92
2022/11/07 10:28:19;;;;;;;10.10;4.47;;;12.00;99.90;;;;;;6021230;23;20464;-88
2022/11/07 10:30:47;;;;;;;18.92;5.68;;;;;;;;;;6045772;23;20061;-87
2022/11/07 10:33:16;;;;;;;16.20;5.20;;;;;;;;;;6021340;23;20023;-86
2022/11/07 10:35:45;;;;;;;20.02;5.35;;;;;;;;;;6045109;23;20058;-84
2022/11/07 10:38:29;;;;;;;11.68;5.03;;;;;;;;;;6061600;23;20019;-84
2022/11/07 10:40:55;;;;;;;15.77;4.95;;;;;;;;;;6140880;23;20021;-86
2022/11/07 10:43:36;;;;;;;12.63;4.35;;;12.20;99.90;;;;;;6139250;23;20335;-86
2022/11/07 10:46:21;;;;;;;14.07;5.38;;;12.10;99.90;;;;;;6189591;23;20028;-87
2022/11/07 10:48:58;;;;;;;10.70;4.43;;;12.10;99.90;;;;;;6138835;23;20017;-85
2022/11/07 10:51:34;;;;;;;13.55;4.53;;;;;;;;;;6163193;23;20013;-89
2022/11/07 10:54:00;;;;;;;15.18;6.43;;;;;;;;;;6163967;23;20044;-90
2022/11/07 10:56:29;;;;;;;19.30;4.70;;;;;;;;;;6138179;23;20027;-85
2022/11/07 10:58:58;;;;;;;12.55;4.53;;;;;;;;;;6189226;23;20446;-86
2022/11/07 11:01:25;;;;;;;12.55;4.32;;;12.30;99.90;;;;;;6162773;23;20053;-88
2022/11/07 11:03:53;;;;;;;13.80;4.88;;;;;;;;;;6137792;23;20023;-88
2022/11/07 11:06:40;;;;;;;11.85;5.28;;;12.40;99.90;;;;;;6137439;23;20016;-89
2022/11/07 11:09:18;;;;;;;13.57;5.13;;;12.50;99.90;;;;;;6133028;23;20075;-85
2022/11/07 11:11:44;;;;;;;13.60;4.65;;;;;;;;;;6187441;23;20343;-89
2022/11/07 11:14:13;;;;;;;12.35;4.60;;;12.30;99.90;;;;;;6161818;23;20028;-88
2022/11/07 11:16:42;;;;;;;15.15;4.38;;;;;;;;;;6161275;23;20017;-85
2022/11/07 11:19:24;;;;;;;11.90;4.00;;;12.40;99.90;;;;;;6136878;23;20021;-85
2022/11/07 11:21:51;;;;;;;12.80;4.97;;;12.50;99.90;;;;;;6161127;23;20347;-87
2022/11/07 11:24:27;;;;;;;11.45;4.35;;;;;;;;;;6161568;23;20017;-87
2022/11/07 11:26:55;;;;;;;10.88;4.40;;;12.50;99.90;;;;;;6137251;23;20017;-88
2022/11/07 11:29:21;;;;;;;11.13;4.47;;;;;;;;;;6162874;23;20046;-85
2022/11/07 11:31:50;;;;;;;12.43;4.78;;;12.60;99.90;;;;;;6137845;23;20036;-87
2022/11/07 11:34:24;;;;;;;14.52;4.95;;;12.60;99.90;;;;;;6137803;23;20040;-84
2022/11/07 11:37:30;;;;;;;9.25;3.97;;;12.60;99.90;;;;;;6163513;23;20023;-90
2022/11/07 11:40:22;;;;;;;13.57;4.45;;;12.60;99.90;;;;;;6136139;23;20105;-93
2022/11/07 11:42:48;;;;;;;5.47;4.10;;;;;;;;;;6045734;23;20054;-88
2022/11/07 11:45:17;;;;;;;11.18;4.57;;;;;;;;;;6046836;23;20019;-89
2022/11/07 11:48:02;;;;;;;10.75;4.65;;;12.70;99.90;;;;;;6024563;23;20082;-90
2022/11/07 11:50:38;;;;;;;10.95;5.00;;;;;;;;;;6023404;23;20019;-84
2022/11/07 11:53:04;;;;;;;15.27;4.82;;;;;;;;;;5997732;23;20019;-84
2022/11/07 11:55:35;;;;;;;10.32;5.40;;;;;;;;;;6023958;23;20018;-84
2022/11/07 11:58:27;;;;;;;11.95;5.63;;;12.80;99.90;;;;;;6024521;23;20023;-91
2022/11/07 12:01:05;;;;;;;16.27;5.45;;;12.90;99.90;;;;;;6024011;23;20492;-87
2022/11/07 12:03:55;;;;;;;11.68;4.65;;;;;;;;;;6023124;23;20463;-86
2022/11/07 12:06:32;;;;;;;9.68;4.57;;;;;;;;;;5961924;24;20023;-90
2022/11/07 12:09:05;;;;;;;8.98;4.68;;;;;;;;;;5938895;24;20020;-94
2022/11/07 12:11:43;;;;;;;13.68;4.22;;;;;;;;;;5939047;24;20057;-92
2022/11/07 12:14:25;;;;;;;7.40;4.35;;;13.20;99.90;;;;;;5939632;24;20103;-88
2022/11/07 12:17:01;;;;;;;11.23;4.18;;;;;;;;;;5938832;24;20024;-87
2022/11/07 12:19:29;;;;;;;5.45;4.18;;;;;;;;;;5982014;23;20025;-88
2022/11/07 12:22:39;;;;;;;6.90;3.78;;;13.20;99.90;;;;;;6050660;23;20053;-89
2022/11/07 12:25:08;;;;;;;10.32;5.05;;;13.40;99.90;;;;;;6074376;23;20062;-90
2022/11/07 12:27:48;;;;;;;12.13;5.20;;;;;;;;;;6075042;23;20018;-94
2022/11/07 12:30:43;;;;;;;7.78;3.88;;;13.50;99.90;;;;;;6053089;23;20097;-92
2022/11/07 12:33:11;;;;;;;7.70;4.30;;;;;;;;;;6074454;23;20051;-86
2022/11/07 12:35:43;;;;;;;7.82;3.78;;;;;;;;;;6074197;23;20025;-83
2022/11/07 12:38:21;;;;;;;10.45;4.60;;;13.60;99.90;;;;;;6075447;23;20061;-88
2022/11/07 12:40:57;;;;;;;5.38;4.00;;;;;;;;;;6076415;23;20014;-91
2022/11/07 12:43:43;;;;;;;9.23;3.65;;;13.60;99.90;;;;;;6123662;23;20080;-92
2022/11/07 12:46:18;;;;;;;13.05;4.70;;;;;;;;;;6141198;23;20066;-96
2022/11/07 12:48:44;;;;;;;10.40;3.80;;;;;;;;;;6141732;23;20447;-95
2022/11/07 12:51:21;;;;;;;14.38;3.55;;;;;;;;;;6140563;23;20494;-84
2022/11/07 12:53:47;;;;;;;8.60;3.63;;;;;;;;;;6164456;23;20028;-88
2022/11/07 12:56:27;;;;;;;9.15;4.10;;;;;;;;;;6164302;23;20013;-84
2022/11/07 12:58:53;;;;;;;11.35;4.28;;;;;;;;;;6139683;23;20480;-84
2022/11/07 13:01:25;;;;;;;11.38;3.53;;;;;;;;;;6158030;23;20045;-83
2022/11/07 13:03:56;;;;;;;7.13;3.42;;;;;;;;;;6110005;23;20021;-85
2022/11/07 13:06:47;;;;;;;5.18;3.80;;;13.60;99.90;;;;;;6133700;23;20367;-90
2022/11/07 13:09:13;;;;;;;6.15;3.58;;;;;;;;;;6157550;23;20068;-95
2022/11/07 13:11:51;;;;;;;8.65;3.50;;;;;;;;;;6110082;23;20390;-91
2022/11/07 13:14:24;;;;;;;7.85;3.55;;;;;;;;;;6108859;23;20092;-94
2022/11/07 13:16:50;;;;;;;6.65;3.75;;;;;;;;;;6131903;23;20014;-91
2022/11/07 13:19:28;;;;;;;5.93;3.75;;;;;;;;;;6107701;23;20062;-84
2022/11/07 13:22:03;;;;;;;14.95;4.60;;;;;;;;;;6107508;23;20017;-87
2022/11/07 13:24:29;;;;;;;12.18;4.10;;;;;;;;;;6107758;23;20060;-89
2022/11/07 13:26:56;;;;;;;6.38;3.55;;;;;;;;;;6107972;23;20017;-89
2022/11/07 13:29:31;;;;;;;15.52;4.10;;;;;;;;;;6132065;23;20018;-87
2022/11/07 13:32:10;;;;;;;7.15;4.03;;;;;;;;;;6118455;23;20017;-92
2022/11/07 13:34:41;;;;;;;13.95;4.07;;;;;;;;;;6186355;23;20049;-85
2022/11/07 13:37:18;;;;;;;14.73;4.93;;;13.40;99.90;;;;;;6135744;23;20048;-86
2022/11/07 13:39:47;;;;;;;7.70;3.95;;;13.40;99.90;;;;;;6135790;23;20076;-84
2022/11/07 13:42:17;;;;;;;11.93;3.85;;;;;;;;;;6160220;23;20056;-90
2022/11/07 13:44:50;;;;;;;14.68;4.40;;;13.50;99.90;;;;;;6161137;23;20051;-93
2022/11/07 13:47:23;;;;;;;9.40;3.95;;;13.70;99.90;;;;;;6162264;23;20021;-94
2022/11/07 13:49:49;;;;;;;11.43;5.20;;;;;;;;;;6162045;23;20021;-90
2022/11/07 13:52:21;;;;;;;11.38;3.47;;;;;;;;;;6137841;23;20017;-92
2022/11/07 13:54:55;;;;;;;10.13;4.13;;;;;;;;;;6162638;23;20021;-94
2022/11/07 13:57:21;;;;;;;11.85;4.95;;;;;;;;;;6161796;23;20036;-93
2022/11/07 14:00:05;;;;;;;11.35;5.75;;;;;;;;;;6161355;23;20456;-92
2022/11/07 14:02:34;;;;;;;7.80;4.10;;;;;;;;;;6161930;23;20021;-93
2022/11/07 14:05:11;;;;;;;8.50;3.83;;;13.40;99.90;;;;;;6161733;23;20310;-94
2022/11/07 14:07:39;;;;;;;13.15;4.65;;;;;;;;;;6161687;23;20024;-94
2022/11/07 14:10:27;;;;;;;8.85;3.38;;;13.40;99.90;;;;;;6136971;23;20098;-92
2022/11/07 14:13:01;;;;;;;6.75;3.80;;;13.50;99.90;;;;;;6135909;23;20017;-91
2022/11/07 14:15:27;;;;;;;9.25;4.20;;;;;;;;;;6136582;23;20017;-92
2022/11/07 14:17:53;;;;;;;10.57;3.97;;;13.50;99.90;;;;;;6163765;23;20017;-94
2022/11/07 14:20:20;;;;;;;8.90;4.18;;;;;;;;;;6163166;23;20013;-93
2022/11/07 14:22:56;;;;;;;7.35;3.78;;;;;;;;;;6188903;23;20450;-90
2022/11/07 14:25:32;;;;;;;15.65;4.00;;;;;;;;;;6137751;23;20017;-89
2022/11/07 14:28:00;;;;;;;10.10;3.88;;;;;;;;;;6161860;23;20536;-84
2022/11/07 14:30:27;;;;;;;8.32;4.97;;;;;;;;;;6162219;23;20104;-86
2022/11/07 14:32:57;;;;;;;8.48;3.92;;;13.50;99.90;;;;;;6162080;23;20347;-87
2022/11/07 14:35:25;;;;;;;14.93;4.93;;;13.50;99.90;;;;;;6137376;23;20025;-89
2022/11/07 14:37:51;;;;;;;10.73;4.47;;;;;;;;;;6137490;23;20028;-87